createdAt,value
2023-02-18T00:01:32.652Z,100.00
2023-02-18T00:03:06.185Z,100.00
2023-02-18T00:04:39.372Z,100.00
2023-02-18T00:06:14.291Z,100.00
2023-02-18T00:07:47.459Z,100.00
2023-02-18T00:09:20.856Z,100.00
2023-02-18T00:10:53.315Z,100.00
2023-02-18T00:12:27.891Z,100.00
2023-02-18T00:14:03.282Z,100.00
2023-02-18T00:15:35.692Z,100.00
2023-02-18T00:17:08.943Z,100.00
2023-02-18T00:18:42.133Z,100.00
2023-02-18T00:20:15.250Z,100.00
2023-02-18T00:21:48.394Z,100.00
2023-02-18T00:23:21.574Z,100.00
2023-02-18T00:24:54.907Z,100.00
2023-02-18T00:26:28.727Z,100.00
2023-02-18T00:28:03.719Z,100.00
2023-02-18T00:29:36.917Z,100.00
2023-02-18T00:31:13.889Z,100.00
2023-02-18T00:32:47.056Z,100.00
2023-02-18T00:34:22.943Z,100.00
2023-02-18T00:36:01.970Z,100.00
2023-02-18T00:37:35.550Z,100.00
2023-02-18T00:39:10.275Z,100.00
2023-02-18T00:40:44.207Z,100.00
2023-02-18T00:42:17.318Z,100.00
2023-02-18T00:43:51.104Z,100.00
2023-02-18T00:45:26.033Z,100.00
2023-02-18T00:46:59.453Z,100.00
2023-02-18T00:48:33.544Z,100.00
2023-02-18T00:50:07.976Z,100.00
2023-02-18T00:51:41.471Z,100.00
2023-02-18T00:53:15.015Z,100.00
2023-02-18T00:54:48.313Z,100.00
2023-02-18T00:56:21.024Z,100.00
2023-02-18T00:57:54.781Z,100.00
2023-02-18T00:59:29.850Z,100.00
2023-02-18T01:01:02.672Z,100.00
2023-02-18T01:02:36.133Z,100.00
2023-02-18T01:04:09.231Z,100.00
2023-02-18T01:05:43.371Z,100.00
2023-02-18T01:07:16.548Z,100.00
2023-02-18T01:08:50.588Z,100.00
2023-02-18T01:10:22.772Z,100.00
2023-02-18T01:11:56.170Z,100.00
2023-02-18T01:13:30.325Z,100.00
2023-02-18T01:15:05.344Z,100.00
2023-02-18T01:16:38.914Z,100.00
2023-02-18T01:18:15.507Z,100.00
2023-02-18T01:19:48.683Z,100.00
2023-02-18T01:21:21.963Z,100.00
2023-02-18T01:22:55.312Z,100.00
2023-02-18T01:24:28.871Z,100.00
2023-02-18T01:26:01.116Z,100.00
2023-02-18T01:27:34.495Z,100.00
2023-02-18T01:29:08.079Z,100.00
2023-02-18T01:30:43.609Z,100.00
2023-02-18T01:32:16.906Z,100.00
2023-02-18T01:33:50.166Z,100.00
2023-02-18T01:35:22.546Z,100.00
2023-02-18T01:36:56.840Z,100.00
2023-02-18T01:38:29.159Z,100.00
2023-02-18T01:40:02.579Z,100.00
2023-02-18T01:41:35.770Z,100.00
2023-02-18T01:43:11.555Z,100.00
2023-02-18T01:44:45.346Z,100.00
2023-02-18T01:46:22.768Z,100.00
2023-02-18T01:47:55.409Z,100.00
2023-02-18T01:49:32.997Z,100.00
2023-02-18T01:51:11.117Z,100.00
2023-02-18T01:52:44.741Z,100.00
2023-02-18T01:54:23.803Z,100.00
2023-02-18T01:55:57.749Z,100.00
2023-02-18T01:57:36.491Z,100.00
2023-02-18T01:59:14.593Z,100.00
2023-02-18T02:00:50.592Z,100.00
2023-02-18T02:02:28.434Z,100.00
2023-02-18T02:04:02.552Z,100.00
2023-02-18T02:05:35.496Z,100.00
2023-02-18T02:07:09.032Z,100.00
2023-02-18T02:08:41.794Z,100.00
2023-02-18T02:10:18.440Z,100.00
2023-02-18T02:12:09.553Z,100.00
2023-02-18T02:13:57.306Z,100.00
2023-02-18T02:15:43.102Z,100.00
2023-02-18T02:17:29.403Z,100.00
2023-02-18T02:19:34.794Z,100.00
2023-02-18T02:21:45.130Z,100.00
2023-02-18T02:23:58.988Z,100.00
2023-02-18T02:26:08.418Z,100.00
2023-02-18T02:28:17.306Z,100.00
2023-02-18T02:30:29.261Z,100.00
2023-02-18T02:32:21.628Z,100.00
2023-02-18T02:34:28.075Z,100.00
2023-02-18T02:36:08.920Z,100.00
2023-02-18T02:37:51.004Z,100.00
2023-02-18T02:39:34.741Z,100.00
2023-02-18T02:41:23.503Z,100.00
2023-02-18T02:43:07.249Z,100.00
2023-02-18T02:44:48.394Z,100.00
2023-02-18T02:46:28.241Z,100.00
2023-02-18T02:48:10.592Z,100.00
2023-02-18T02:49:54.971Z,100.00
2023-02-18T02:51:34.372Z,100.00
2023-02-18T02:53:14.891Z,100.00
2023-02-18T02:54:47.082Z,100.00
2023-02-18T02:56:23.570Z,100.00
2023-02-18T02:57:59.025Z,100.00
2023-02-18T02:59:41.086Z,100.00
2023-02-18T03:01:31.276Z,100.00
2023-02-18T03:03:28.171Z,100.00
2023-02-18T03:05:10.549Z,100.00
2023-02-18T03:07:12.540Z,100.00
2023-02-18T03:08:58.197Z,100.00
2023-02-18T03:10:44.681Z,100.00
2023-02-18T03:12:23.391Z,100.00
2023-02-18T03:14:03.713Z,100.00
2023-02-18T03:15:51.442Z,100.00
2023-02-18T03:17:31.086Z,100.00
2023-02-18T03:19:11.949Z,100.00
2023-02-18T03:20:50.360Z,100.00
2023-02-18T03:22:31.597Z,100.00
2023-02-18T03:24:14.003Z,100.00
2023-02-18T03:25:50.180Z,100.00
2023-02-18T03:27:26.146Z,100.00
2023-02-18T03:29:04.420Z,100.00
2023-02-18T03:30:42.834Z,100.00
2023-02-18T03:32:20.723Z,100.00
2023-02-18T03:33:58.349Z,100.00
2023-02-18T03:35:31.899Z,100.00
2023-02-18T03:37:10.250Z,100.00
2023-02-18T03:38:48.915Z,100.00
2023-02-18T03:40:22.568Z,100.00
2023-02-18T03:41:56.155Z,100.00
2023-02-18T03:43:30.814Z,100.00
2023-02-18T03:45:04.776Z,100.00
2023-02-18T03:46:39.762Z,100.00
2023-02-18T03:48:13.176Z,100.00
2023-02-18T03:49:46.444Z,100.00
2023-02-18T03:51:19.704Z,100.00
2023-02-18T03:52:52.870Z,100.00
2023-02-18T03:54:28.887Z,100.00
2023-02-18T03:56:02.794Z,100.00
2023-02-18T03:57:35.129Z,100.00
2023-02-18T03:59:08.202Z,100.00
2023-02-18T04:00:41.620Z,100.00
2023-02-18T04:02:14.935Z,100.00
2023-02-18T04:03:48.430Z,100.00
2023-02-18T04:05:21.673Z,100.00
2023-02-18T04:06:54.922Z,100.00
2023-02-18T04:08:28.258Z,100.00
2023-02-18T04:10:03.189Z,100.00
2023-02-18T04:11:38.086Z,100.00
2023-02-18T04:13:11.518Z,100.00
2023-02-18T04:14:44.838Z,100.00
2023-02-18T04:16:18.149Z,100.00
2023-02-18T04:17:51.360Z,100.00
2023-02-18T04:19:24.714Z,100.00
2023-02-18T04:20:57.861Z,100.00
2023-02-18T04:22:31.224Z,100.00
2023-02-18T04:24:04.567Z,100.00
2023-02-18T04:25:39.341Z,100.00
2023-02-18T04:27:12.529Z,100.00
2023-02-18T04:28:45.972Z,100.00
2023-02-18T04:30:19.302Z,100.00
2023-02-18T04:31:52.800Z,100.00
2023-02-18T04:33:25.921Z,100.00
2023-02-18T04:34:58.448Z,100.00
2023-02-18T04:36:31.680Z,100.00
2023-02-18T04:38:06.358Z,100.00
2023-02-18T04:39:39.508Z,100.00
2023-02-18T04:41:17.160Z,100.00
2023-02-18T04:42:50.302Z,100.00
2023-02-18T04:44:23.666Z,100.00
2023-02-18T04:45:56.970Z,100.00
2023-02-18T04:47:30.533Z,100.00
2023-02-18T04:49:03.705Z,100.00
2023-02-18T04:50:37.113Z,100.00
2023-02-18T04:52:10.241Z,100.00
2023-02-18T04:53:43.750Z,100.00
2023-02-18T04:55:15.868Z,100.00
2023-02-18T04:56:50.940Z,100.00
2023-02-18T04:58:24.298Z,100.00
2023-02-18T04:59:57.454Z,100.00
2023-02-18T05:01:30.662Z,100.00
2023-02-18T05:03:04.560Z,100.00
2023-02-18T05:04:37.731Z,100.00
2023-02-18T05:06:11.059Z,100.00
2023-02-18T05:07:44.305Z,100.00
2023-02-18T05:09:16.965Z,100.00
2023-02-18T05:10:50.230Z,100.00
2023-02-18T05:12:24.868Z,100.00
2023-02-18T05:13:57.051Z,100.00
2023-02-18T05:15:30.606Z,100.00
2023-02-18T05:17:04.210Z,100.00
2023-02-18T05:18:37.328Z,100.00
2023-02-18T05:20:11.133Z,100.00
2023-02-18T05:21:45.205Z,100.00
2023-02-18T05:23:20.205Z,100.00
2023-02-18T05:24:53.376Z,100.00
2023-02-18T05:26:26.537Z,100.00
2023-02-18T05:28:01.706Z,100.00
2023-02-18T05:29:34.897Z,100.00
2023-02-18T05:31:08.141Z,100.00
2023-02-18T05:32:41.367Z,100.00
2023-02-18T05:34:14.836Z,100.00
2023-02-18T05:35:46.981Z,100.00
2023-02-18T05:37:20.193Z,100.00
2023-02-18T05:38:53.243Z,100.00
2023-02-18T05:40:27.460Z,100.00
2023-02-18T05:42:00.928Z,100.00
2023-02-18T05:43:54.785Z,100.00
2023-02-18T05:45:28.034Z,100.00
2023-02-18T05:47:03.594Z,100.00
2023-02-18T05:48:36.704Z,100.00
2023-02-18T05:50:10.194Z,100.00
2023-02-18T05:51:42.399Z,100.00
2023-02-18T05:53:17.623Z,100.00
2023-02-18T05:54:50.859Z,100.00
2023-02-18T05:56:24.268Z,100.00
2023-02-18T05:57:57.385Z,100.00
2023-02-18T05:59:32.473Z,100.00
2023-02-18T06:01:06.061Z,100.00
2023-02-18T06:02:40.118Z,100.00
2023-02-18T06:04:13.611Z,100.00
2023-02-18T06:05:50.630Z,100.00
2023-02-18T06:07:22.883Z,100.00
2023-02-18T06:08:56.006Z,100.00
2023-02-18T06:10:29.213Z,100.00
2023-02-18T06:12:02.943Z,100.00
2023-02-18T06:13:35.225Z,100.00
2023-02-18T06:15:10.336Z,100.00
2023-02-18T06:16:42.432Z,100.00
2023-02-18T06:18:20.109Z,100.00
2023-02-18T06:19:53.286Z,100.00
2023-02-18T06:21:26.602Z,100.00
2023-02-18T06:22:59.809Z,100.00
2023-02-18T06:24:33.821Z,100.00
2023-02-18T06:26:06.376Z,100.00
2023-02-18T06:27:39.639Z,100.00
2023-02-18T06:29:12.751Z,100.00
2023-02-18T06:30:50.790Z,100.00
2023-02-18T06:32:24.084Z,100.00
2023-02-18T06:33:57.411Z,100.00
2023-02-18T06:35:29.523Z,100.00
2023-02-18T06:37:02.813Z,100.00
2023-02-18T06:38:36.873Z,100.00
2023-02-18T06:40:10.606Z,100.00
2023-02-18T06:41:43.746Z,100.00
2023-02-18T06:43:16.756Z,100.00
2023-02-18T06:44:49.926Z,100.00
2023-02-18T06:46:24.510Z,100.00
2023-02-18T06:47:57.699Z,100.00
2023-02-18T06:49:30.706Z,100.00
2023-02-18T06:51:04.124Z,100.00
2023-02-18T06:52:38.188Z,100.00
2023-02-18T06:54:11.313Z,100.00
2023-02-18T06:55:44.096Z,100.00
2023-02-18T06:57:17.288Z,100.00
2023-02-18T06:58:50.541Z,100.00
2023-02-18T07:00:23.963Z,100.00
2023-02-18T07:01:58.819Z,100.00
2023-02-18T07:03:32.113Z,100.00
2023-02-18T07:05:05.410Z,100.00
2023-02-18T07:06:38.569Z,100.00
2023-02-18T07:08:12.074Z,100.00
2023-02-18T07:09:45.278Z,100.00
2023-02-18T07:11:18.474Z,100.00
2023-02-18T07:12:51.726Z,100.00
2023-02-18T07:14:26.684Z,100.00
2023-02-18T07:15:59.866Z,100.00
2023-02-18T07:17:34.515Z,100.00
2023-02-18T07:19:07.694Z,100.00
2023-02-18T07:20:41.106Z,100.00
2023-02-18T07:22:14.315Z,100.00
2023-02-18T07:23:47.490Z,100.00
2023-02-18T07:25:23.063Z,100.00
2023-02-18T07:26:56.922Z,100.00
2023-02-18T07:28:30.112Z,100.00
2023-02-18T07:30:03.450Z,100.00
2023-02-18T07:31:38.443Z,100.00
2023-02-18T07:33:14.363Z,100.00
2023-02-18T07:34:47.679Z,100.00
2023-02-18T07:36:20.889Z,100.00
2023-02-18T07:37:54.051Z,100.00
2023-02-18T07:39:27.555Z,100.00
2023-02-18T07:41:01.627Z,100.00
2023-02-18T07:42:34.774Z,100.00
2023-02-18T07:44:08.183Z,100.00
2023-02-18T07:45:41.959Z,100.00
2023-02-18T07:47:19.865Z,100.00
2023-02-18T07:48:54.468Z,100.00
2023-02-18T07:50:27.654Z,100.00
2023-02-18T07:52:01.204Z,100.00
2023-02-18T07:53:34.380Z,100.00
2023-02-18T07:55:08.254Z,100.00
2023-02-18T07:56:43.146Z,100.00
2023-02-18T07:58:16.763Z,100.00
2023-02-18T07:59:49.965Z,100.00
2023-02-18T08:01:23.157Z,100.00
2023-02-18T08:02:56.298Z,100.00
2023-02-18T08:04:31.174Z,100.00
2023-02-18T08:06:05.130Z,100.00
2023-02-18T08:07:38.590Z,100.00
2023-02-18T08:09:11.779Z,100.00
2023-02-18T08:10:45.525Z,100.00
2023-02-18T08:12:18.728Z,100.00
2023-02-18T08:13:52.052Z,100.00
2023-02-18T08:15:25.380Z,100.00
2023-02-18T08:16:58.827Z,100.00
2023-02-18T08:18:32.021Z,100.00
2023-02-18T08:20:08.406Z,100.00
2023-02-18T08:21:41.692Z,100.00
2023-02-18T08:23:16.830Z,100.00
2023-02-18T08:24:50.125Z,100.00
2023-02-18T08:26:23.374Z,100.00
2023-02-18T08:27:56.646Z,100.00
2023-02-18T08:29:31.029Z,100.00
2023-02-18T08:31:04.444Z,100.00
2023-02-18T08:32:38.565Z,100.00
2023-02-18T08:34:12.004Z,100.00
2023-02-18T08:35:48.261Z,100.00
2023-02-18T08:37:21.510Z,100.00
2023-02-18T08:38:55.743Z,100.00
2023-02-18T08:40:29.309Z,100.00
2023-02-18T08:42:02.144Z,100.00
2023-02-18T08:43:35.358Z,100.00
2023-02-18T08:45:09.478Z,100.00
2023-02-18T08:46:42.718Z,100.00
2023-02-18T08:48:20.556Z,100.00
2023-02-18T08:49:54.314Z,100.00
2023-02-18T08:51:30.293Z,100.00
2023-02-18T08:53:03.631Z,100.00
2023-02-18T08:54:38.127Z,100.00
2023-02-18T08:56:13.341Z,100.00
2023-02-18T08:57:46.627Z,100.00
2023-02-18T08:59:21.461Z,100.00
2023-02-18T09:00:55.025Z,100.00
2023-02-18T09:02:29.371Z,100.00
2023-02-18T09:04:02.590Z,100.00
2023-02-18T09:05:35.781Z,100.00
2023-02-18T09:07:12.094Z,100.00
2023-02-18T09:08:47.322Z,100.00
2023-02-18T09:10:22.193Z,100.00
2023-02-18T09:11:56.310Z,100.00
2023-02-18T09:13:32.513Z,100.00
2023-02-18T09:15:08.062Z,100.00
2023-02-18T09:16:45.141Z,100.00
2023-02-18T09:18:20.484Z,100.00
2023-02-18T09:19:54.164Z,100.00
2023-02-18T09:21:27.581Z,100.00
2023-02-18T09:23:03.731Z,100.00
2023-02-18T09:24:38.842Z,100.00
2023-02-18T09:26:15.544Z,100.00
2023-02-18T09:27:48.663Z,100.00
2023-02-18T09:29:21.801Z,100.00
2023-02-18T09:30:54.921Z,100.00
2023-02-18T09:32:34.872Z,100.00
2023-02-18T09:34:08.968Z,100.00
2023-02-18T09:35:42.433Z,100.00
2023-02-18T09:37:15.803Z,100.00
2023-02-18T09:38:51.329Z,100.00
2023-02-18T09:40:30.505Z,100.00
2023-02-18T09:42:05.736Z,100.00
2023-02-18T09:43:43.903Z,100.00
2023-02-18T09:45:17.289Z,100.00
2023-02-18T09:46:53.686Z,100.00
2023-02-18T09:48:30.010Z,100.00
2023-02-18T09:50:09.821Z,100.00
2023-02-18T09:51:43.313Z,100.00
2023-02-18T09:53:17.124Z,100.00
2023-02-18T09:54:52.184Z,100.00
2023-02-18T09:56:30.542Z,100.00
2023-02-18T09:58:05.960Z,100.00
2023-02-18T09:59:39.420Z,100.00
2023-02-18T10:01:18.846Z,100.00
2023-02-18T10:02:58.187Z,100.00
2023-02-18T10:04:38.823Z,100.00
2023-02-18T10:06:17.243Z,100.00
2023-02-18T10:07:53.250Z,100.00
2023-02-18T10:09:30.546Z,99.46
2023-02-18T10:11:06.288Z,90.58
2023-02-18T10:12:40.975Z,100.00
2023-02-18T10:14:16.195Z,100.00
2023-02-18T10:15:51.677Z,100.00
2023-02-18T10:17:28.368Z,95.20
2023-02-18T10:19:18.168Z,97.12
2023-02-18T10:20:53.499Z,98.63
2023-02-18T10:22:28.734Z,84.34
2023-02-18T10:24:05.507Z,93.40
2023-02-18T10:25:43.696Z,88.34
2023-02-18T10:27:25.003Z,86.47
2023-02-18T10:28:58.818Z,96.79
2023-02-18T10:30:37.243Z,89.36
2023-02-18T10:32:20.789Z,80.41
2023-02-18T10:34:01.043Z,90.99
2023-02-18T10:35:40.460Z,82.46
2023-02-18T10:37:30.351Z,71.74
2023-02-18T10:39:20.575Z,85.79
2023-02-18T10:41:03.124Z,75.64
2023-02-18T10:42:47.994Z,81.14
2023-02-18T10:44:32.021Z,81.93
2023-02-18T10:46:14.632Z,80.09
2023-02-18T10:48:00.038Z,72.67
2023-02-18T10:49:52.937Z,72.25
2023-02-18T10:51:32.194Z,75.49
2023-02-18T10:53:22.558Z,65.72
2023-02-18T10:55:02.223Z,71.14
2023-02-18T10:56:41.765Z,68.29
2023-02-18T10:58:35.480Z,69.37
2023-02-18T11:00:19.080Z,63.38
2023-02-18T11:01:57.964Z,71.06
2023-02-18T11:03:43.350Z,64.16
2023-02-18T11:05:24.739Z,67.57
2023-02-18T11:07:06.120Z,68.30
2023-02-18T11:08:44.151Z,71.32
2023-02-18T11:10:20.014Z,71.55
2023-02-18T11:12:07.867Z,70.60
2023-02-18T11:13:43.921Z,68.04
2023-02-18T11:15:22.379Z,63.01
2023-02-18T11:16:56.554Z,65.99
2023-02-18T11:18:40.288Z,57.39
2023-02-18T11:20:26.070Z,63.11
2023-02-18T11:22:09.657Z,64.67
2023-02-18T11:23:49.457Z,59.66
2023-02-18T11:25:24.967Z,61.84
2023-02-18T11:26:58.349Z,62.81
2023-02-18T11:28:41.777Z,59.71
2023-02-18T11:30:22.738Z,59.09
2023-02-18T11:31:58.132Z,62.47
2023-02-18T11:33:36.922Z,60.41
2023-02-18T11:35:20.270Z,58.74
2023-02-18T11:36:54.403Z,62.63
2023-02-18T11:38:30.708Z,62.76
2023-02-18T11:40:03.984Z,64.79
2023-02-18T11:41:42.370Z,64.03
2023-02-18T11:43:17.862Z,65.10
2023-02-18T11:44:54.110Z,64.90
2023-02-18T11:46:29.770Z,65.33
2023-02-18T11:48:07.594Z,66.41
2023-02-18T11:49:43.432Z,66.31
2023-02-18T11:51:20.914Z,64.86
2023-02-18T11:52:55.015Z,65.64
2023-02-18T11:54:31.345Z,64.94
2023-02-18T11:56:07.327Z,64.73
2023-02-18T11:57:44.391Z,63.26
2023-02-18T11:59:17.832Z,65.33
2023-02-18T12:00:52.881Z,65.55
2023-02-18T12:02:35.096Z,61.61
2023-02-18T12:04:14.016Z,65.91
2023-02-18T12:05:47.899Z,64.76
2023-02-18T12:07:25.295Z,58.84
2023-02-18T12:09:02.944Z,58.11
2023-02-18T12:10:42.474Z,57.77
2023-02-18T12:12:19.898Z,58.85
2023-02-18T12:13:56.510Z,60.31
2023-02-18T12:15:39.923Z,59.17
2023-02-18T12:17:34.567Z,58.31
2023-02-18T12:19:36.371Z,59.27
2023-02-18T12:21:37.726Z,55.44
2023-02-18T12:23:23.158Z,56.72
2023-02-18T12:25:11.325Z,58.28
2023-02-18T12:26:54.800Z,57.69
2023-02-18T12:28:51.700Z,57.11
2023-02-18T12:30:46.751Z,57.64
2023-02-18T12:32:34.158Z,58.26
2023-02-18T12:34:28.010Z,54.95
2023-02-18T12:36:11.854Z,57.02
2023-02-18T12:38:01.967Z,54.25
2023-02-18T12:39:50.136Z,55.27
2023-02-18T12:41:40.744Z,55.00
2023-02-18T12:43:24.934Z,55.65
2023-02-18T12:45:11.959Z,54.36
2023-02-18T12:47:17.062Z,54.33
2023-02-18T12:49:14.580Z,53.00
2023-02-18T12:51:05.571Z,54.48
2023-02-18T12:52:51.655Z,54.03
2023-02-18T12:54:35.936Z,54.69
2023-02-18T12:56:33.475Z,52.64
2023-02-18T12:58:18.701Z,53.50
2023-02-18T13:00:27.870Z,54.84
2023-02-18T13:02:12.994Z,55.42
2023-02-18T13:04:04.902Z,53.03
2023-02-18T13:05:44.291Z,54.85
2023-02-18T13:07:48.284Z,53.13
2023-02-18T13:09:36.474Z,54.09
2023-02-18T13:11:21.017Z,54.92
2023-02-18T13:12:59.259Z,56.36
2023-02-18T13:14:35.428Z,56.93
2023-02-18T13:16:13.841Z,55.56
2023-02-18T13:17:51.016Z,57.19
2023-02-18T13:19:28.113Z,56.13
2023-02-18T13:21:06.072Z,56.90
2023-02-18T13:22:40.226Z,57.66
2023-02-18T13:24:16.117Z,58.13
2023-02-18T13:25:56.948Z,58.47
2023-02-18T13:27:38.189Z,58.32
2023-02-18T13:29:25.973Z,58.08
2023-02-18T13:31:17.318Z,58.31
2023-02-18T13:33:02.746Z,57.46
2023-02-18T13:34:44.378Z,58.24
2023-02-18T13:36:34.074Z,58.46
2023-02-18T13:38:27.880Z,58.33
2023-02-18T13:40:04.351Z,61.41
2023-02-18T13:41:39.262Z,60.92
2023-02-18T13:43:20.897Z,59.78
2023-02-18T13:45:33.689Z,59.69
2023-02-18T13:47:10.093Z,61.53
2023-02-18T13:48:52.371Z,62.28
2023-02-18T13:50:41.986Z,61.78
2023-02-18T13:52:21.578Z,61.86
2023-02-18T13:54:00.772Z,63.58
2023-02-18T13:55:40.533Z,62.70
2023-02-18T13:57:18.148Z,62.75
2023-02-18T13:58:54.047Z,62.30
2023-02-18T14:00:37.448Z,61.10
2023-02-18T14:02:32.966Z,61.02
2023-02-18T14:04:44.607Z,59.45
2023-02-18T14:06:21.514Z,61.37
2023-02-18T14:08:10.592Z,59.91
2023-02-18T14:09:44.718Z,61.28
2023-02-18T14:11:42.771Z,60.78
2023-02-18T14:13:40.044Z,61.66
2023-02-18T14:16:05.213Z,61.20
2023-02-18T14:17:45.246Z,62.31
2023-02-18T14:19:30.146Z,64.05
2023-02-18T14:21:22.477Z,65.26
2023-02-18T14:22:55.819Z,65.91
2023-02-18T14:24:50.094Z,67.06
2023-02-18T14:26:26.936Z,69.32
2023-02-18T14:28:05.527Z,70.70
2023-02-18T14:29:39.245Z,71.54
2023-02-18T14:31:30.774Z,77.68
2023-02-18T14:33:05.418Z,76.58
2023-02-18T14:35:08.210Z,84.95
2023-02-18T14:36:51.343Z,84.48
2023-02-18T14:38:38.739Z,85.86
2023-02-18T14:41:05.782Z,90.17
2023-02-18T14:42:48.477Z,87.66
2023-02-18T14:44:51.202Z,92.30
2023-02-18T14:46:36.831Z,88.15
2023-02-18T14:48:27.832Z,90.05
2023-02-18T14:50:03.857Z,87.20
2023-02-18T14:51:43.876Z,88.97
2023-02-18T14:53:21.194Z,90.04
2023-02-18T14:54:54.799Z,87.74
2023-02-18T14:56:28.333Z,87.92
2023-02-18T14:58:03.838Z,87.80
2023-02-18T14:59:41.255Z,89.11
2023-02-18T15:01:20.151Z,91.47
2023-02-18T15:02:55.964Z,89.15
2023-02-18T15:04:29.437Z,89.32
2023-02-18T15:06:02.558Z,88.98
2023-02-18T15:07:37.458Z,89.98
2023-02-18T15:09:15.788Z,90.31
2023-02-18T15:10:53.716Z,89.95
2023-02-18T15:12:27.383Z,90.08
2023-02-18T15:14:00.773Z,89.84
2023-02-18T15:15:36.226Z,89.44
2023-02-18T15:17:16.269Z,89.70
2023-02-18T15:18:53.234Z,88.54
2023-02-18T15:20:28.575Z,87.85
2023-02-18T15:22:02.036Z,88.18
2023-02-18T15:23:39.776Z,88.48
2023-02-18T15:25:14.909Z,88.67
2023-02-18T15:26:52.094Z,87.96
2023-02-18T15:28:28.957Z,87.29
2023-02-18T15:30:23.476Z,87.32
2023-02-18T15:31:58.989Z,86.01
2023-02-18T15:33:32.567Z,85.69
2023-02-18T15:35:17.625Z,85.23
2023-02-18T15:36:51.447Z,85.17
2023-02-18T15:38:24.895Z,84.61
2023-02-18T15:39:59.998Z,83.44
2023-02-18T15:41:33.204Z,84.00
2023-02-18T15:43:08.511Z,83.37
2023-02-18T15:44:48.525Z,82.77
2023-02-18T15:46:24.074Z,83.14
2023-02-18T15:47:59.253Z,82.97
2023-02-18T15:49:32.606Z,83.00
2023-02-18T15:51:17.194Z,83.21
2023-02-18T15:52:53.371Z,83.23
2023-02-18T15:54:27.623Z,83.42
2023-02-18T15:56:08.388Z,82.67
2023-02-18T15:57:43.137Z,83.64
2023-02-18T15:59:20.414Z,83.98
2023-02-18T16:00:55.604Z,84.08
2023-02-18T16:02:30.687Z,84.39
2023-02-18T16:04:04.080Z,84.58
2023-02-18T16:05:41.042Z,84.76
2023-02-18T16:07:27.067Z,85.01
2023-02-18T16:09:02.877Z,85.30
2023-02-18T16:10:55.963Z,85.11
2023-02-18T16:12:36.027Z,86.02
2023-02-18T16:14:22.618Z,85.66
2023-02-18T16:15:56.326Z,85.90
2023-02-18T16:17:31.242Z,85.55
2023-02-18T16:19:05.545Z,85.65
2023-02-18T16:20:41.985Z,85.67
2023-02-18T16:22:28.053Z,86.30
2023-02-18T16:24:05.771Z,86.02
2023-02-18T16:25:44.310Z,86.12
2023-02-18T16:27:17.793Z,86.09
2023-02-18T16:28:55.487Z,86.11
2023-02-18T16:30:30.426Z,86.46
2023-02-18T16:32:03.974Z,86.52
2023-02-18T16:33:37.280Z,86.45
2023-02-18T16:35:10.994Z,86.48
2023-02-18T16:36:59.534Z,86.74
2023-02-18T16:38:33.834Z,87.22
2023-02-18T16:40:22.855Z,88.03
2023-02-18T16:41:56.008Z,87.61
2023-02-18T16:43:32.747Z,87.86
2023-02-18T16:45:08.140Z,87.12
2023-02-18T16:46:41.822Z,87.85
2023-02-18T16:48:21.110Z,88.29
2023-02-18T16:49:55.282Z,87.70
2023-02-18T16:51:32.979Z,88.13
2023-02-18T16:53:06.541Z,87.87
2023-02-18T16:54:40.242Z,88.41
2023-02-18T16:56:18.138Z,89.02
2023-02-18T16:57:51.383Z,88.46
2023-02-18T16:59:25.830Z,89.01
2023-02-18T17:01:00.496Z,88.94
2023-02-18T17:02:33.657Z,88.93
2023-02-18T17:04:07.359Z,89.25
2023-02-18T17:05:41.383Z,89.06
2023-02-18T17:07:14.901Z,88.93
2023-02-18T17:08:48.775Z,89.16
2023-02-18T17:10:22.881Z,89.31
2023-02-18T17:11:57.496Z,89.59
2023-02-18T17:13:31.745Z,89.67
2023-02-18T17:15:15.159Z,90.39
2023-02-18T17:16:51.817Z,90.81
2023-02-18T17:18:28.722Z,91.50
2023-02-18T17:20:02.107Z,90.93
2023-02-18T17:21:36.404Z,90.66
2023-02-18T17:23:14.530Z,91.56
2023-02-18T17:24:47.835Z,92.25
2023-02-18T17:26:24.882Z,92.44
2023-02-18T17:27:58.272Z,93.21
2023-02-18T17:29:31.834Z,94.25
2023-02-18T17:31:05.745Z,94.73
2023-02-18T17:32:40.999Z,95.18
2023-02-18T17:34:17.392Z,94.98
2023-02-18T17:35:51.251Z,94.78
2023-02-18T17:37:25.070Z,94.77
2023-02-18T17:39:01.542Z,95.19
2023-02-18T17:40:35.761Z,95.76
2023-02-18T17:42:11.635Z,97.03
2023-02-18T17:43:45.749Z,97.56
2023-02-18T17:45:23.434Z,97.61
2023-02-18T17:46:56.889Z,97.06
2023-02-18T17:48:32.729Z,97.59
2023-02-18T17:50:07.613Z,97.33
2023-02-18T17:51:40.972Z,98.03
2023-02-18T17:53:14.895Z,98.92
2023-02-18T17:54:49.120Z,100.00
2023-02-18T17:56:22.808Z,99.52
2023-02-18T17:57:56.544Z,100.00
2023-02-18T17:59:30.447Z,100.00
2023-02-18T18:01:03.895Z,100.00
2023-02-18T18:02:38.021Z,100.00
2023-02-18T18:04:15.828Z,100.00
2023-02-18T18:05:52.137Z,100.00
2023-02-18T18:07:25.666Z,100.00
2023-02-18T18:08:59.174Z,100.00
2023-02-18T18:10:35.800Z,100.00
2023-02-18T18:12:15.328Z,100.00
2023-02-18T18:13:48.632Z,100.00
2023-02-18T18:15:26.091Z,100.00
2023-02-18T18:16:59.282Z,100.00
2023-02-18T18:18:32.527Z,100.00
2023-02-18T18:20:09.019Z,100.00
2023-02-18T18:21:42.299Z,100.00
2023-02-18T18:23:17.820Z,100.00
2023-02-18T18:24:51.130Z,100.00
2023-02-18T18:26:24.937Z,100.00
2023-02-18T18:27:58.981Z,100.00
2023-02-18T18:29:32.603Z,100.00
2023-02-18T18:31:06.531Z,100.00
2023-02-18T18:32:39.821Z,100.00
2023-02-18T18:34:16.798Z,100.00
2023-02-18T18:35:52.945Z,100.00
2023-02-18T18:37:26.179Z,100.00
2023-02-18T18:38:59.283Z,100.00
2023-02-18T18:40:34.293Z,100.00
2023-02-18T18:42:07.760Z,100.00
2023-02-18T18:43:40.979Z,100.00
2023-02-18T18:45:22.808Z,100.00
2023-02-18T18:46:55.972Z,100.00
2023-02-18T18:48:29.253Z,100.00
2023-02-18T18:50:02.426Z,100.00
2023-02-18T18:51:37.602Z,100.00
2023-02-18T18:53:19.093Z,100.00
2023-02-18T18:54:52.291Z,100.00
2023-02-18T18:56:25.497Z,100.00
2023-02-18T18:58:00.114Z,100.00
2023-02-18T18:59:33.386Z,100.00
2023-02-18T19:01:14.198Z,100.00
2023-02-18T19:02:47.596Z,100.00
2023-02-18T19:04:21.281Z,100.00
2023-02-18T19:05:54.966Z,100.00
2023-02-18T19:07:29.522Z,100.00
2023-02-18T19:09:02.702Z,100.00
2023-02-18T19:10:37.996Z,100.00
2023-02-18T19:12:11.759Z,100.00
2023-02-18T19:13:45.946Z,100.00
2023-02-18T19:15:22.613Z,100.00
2023-02-18T19:16:58.947Z,100.00
2023-02-18T19:18:33.753Z,100.00
2023-02-18T19:20:08.339Z,100.00
2023-02-18T19:21:42.183Z,100.00
2023-02-18T19:23:17.051Z,100.00
2023-02-18T19:24:50.745Z,100.00
2023-02-18T19:26:24.502Z,100.00
2023-02-18T19:27:58.244Z,100.00
2023-02-18T19:29:31.530Z,100.00
2023-02-18T19:31:09.660Z,100.00
2023-02-18T19:32:43.372Z,100.00
2023-02-18T19:34:16.897Z,100.00
2023-02-18T19:35:50.226Z,100.00
2023-02-18T19:37:24.708Z,100.00
2023-02-18T19:38:59.521Z,100.00
2023-02-18T19:40:32.874Z,100.00
2023-02-18T19:42:06.052Z,100.00
2023-02-18T19:43:39.355Z,100.00
2023-02-18T19:45:12.815Z,100.00
2023-02-18T19:46:45.997Z,100.00
2023-02-18T19:48:20.847Z,100.00
2023-02-18T19:49:55.158Z,100.00
2023-02-18T19:51:28.366Z,100.00
2023-02-18T19:53:02.134Z,100.00
2023-02-18T19:54:37.183Z,100.00
2023-02-18T19:56:10.380Z,100.00
2023-02-18T19:57:43.709Z,100.00
2023-02-18T19:59:19.587Z,100.00
2023-02-18T20:00:52.828Z,100.00
2023-02-18T20:02:27.322Z,100.00
2023-02-18T20:04:00.826Z,100.00
2023-02-18T20:05:38.378Z,100.00
2023-02-18T20:07:12.572Z,100.00
2023-02-18T20:08:45.954Z,100.00
2023-02-18T20:10:21.153Z,100.00
2023-02-18T20:11:54.313Z,100.00
2023-02-18T20:13:27.739Z,100.00
2023-02-18T20:15:00.907Z,100.00
2023-02-18T20:16:34.116Z,100.00
2023-02-18T20:18:07.531Z,100.00
2023-02-18T20:19:41.331Z,100.00
2023-02-18T20:21:14.515Z,100.00
2023-02-18T20:22:47.785Z,100.00
2023-02-18T20:24:21.425Z,100.00
2023-02-18T20:25:56.552Z,100.00
2023-02-18T20:27:30.061Z,100.00
2023-02-18T20:29:03.578Z,100.00
2023-02-18T20:30:36.767Z,100.00